Topsail Beach, NC

11:25 PM EDT on September 15, 2014 (GMT -0400)
Wilmington International | Change Station
CLOSE
Current Station
Airport
Location: Wilmington,
Elevation: 33 ft
Nearby Weather Stations

Elev 33 ft 34.27 °N, 77.90 °W | Updated 32 minutes ago

Overcast
Overcast
73 °F
Feels Like 73 °F
N
5
Wind Variable Wind from North

Today
High -- | Low -- °F
--% Chance of Precip.
Yesterday
High -- | Low -- °F
Precip. -- in
6:53 AM 7:16 PM
Waning Gibbous, 49% visible
Pressure 30.14 in
Visibility 10.0 miles
Clouds Overcast 2800 ft
Dew Point 68 °F
Humidity 84%
Rainfall 0.00 in
Snow Depth Not available.
UV 0 out of 12
Pollen 6.10 out of 12
Air Quality Not available.
Flu Activity Not available.
METAR KILM 160253Z 35004KT 10SM OVC028 23/20 A3014 RMK AO2 SLP204 T02280200 50004

More Conditions Fewer Conditions

Pressure 30.14 in
Visibility 10.0 miles
Clouds Overcast 2800 ft
Dew Point 68 °F
Humidity 84%
Rainfall 0.00 in
Snow Depth Not available.
UV 0 out of 12
Pollen 6.10 out of 12
Air Quality Not available.
Flu Activity Not available.
METAR KILM 160253Z 35004KT 10SM OVC028 23/20 A3014 RMK AO2 SLP204 T02280200 50004

More Conditions Fewer Conditions

10-Day Weather Forecast

Almanac

Astronomy

Sep. 15, 2014 Rise Set
Actual Time 6:53 AM EDT 7:16 PM EDT
Civil Twilight 6:27 AM EDT 7:41 PM EDT
Nautical Twilight 5:58 AM EDT 8:11 PM EDT
Astronomical Twilight 5:28 AM EDT 8:41 PM EDT
Moon No Moon Rise 1:36 PM EDT (9/15)
Length of Visible Light 13h 14m
Length of Day
12h 23m
Tomorrow will be 2m 9s shorter.
Waning Gibbous, 49% of the Moon is Illuminated
Today
Waning Gibbous
Sep 24
New
Oct 1
First Quarter
Oct 8
Full
Oct 15
Last Quarter

Today's Extremes

State Highs State Lows

Community

WunderPhotos

Upload Photos

1,753,694 photos uploaded!

Nearby

Snow Depth

Station Depth Elevation
No new snow has been reported.

Earthquake Activity

City Distance Mag. Time & Date
No recent earthquake activity has been reported nearby.
Minimum magnitude displayed is 2.5.

Coastal Water Temperatures

Place Temperature
Beaufort, NC 79.0 °F
Johnny Mercer Pier, Wrightsville Beach, NC 82.0 °F
Hatteras, NC 78.1 °F
Oregon Inlet Marina, NC 73.9 °F

Nearby Weather Stations